Time;durP1;ratioP1;P1;durP2;ratioP2;P2;SDS_P1;SDS_P2;PMS_P1;PMS_P2;Temp;Humidity;BMP_temperature;BMP_pressure;BME280_temperature;BME280_humidity;BME280_pressure;Samples;Min_cycle;Max_cycle;Signal;HPM_P1;HPM_P2
2023/01/30 00:02:19;;;;;;;12.63;4.53;;;;;;;;;;5034357;28;20095;-78
2023/01/30 00:04:45;;;;;;;11.85;4.75;;;;;;;;;;5035270;28;20133;-78
2023/01/30 00:07:11;;;;;;;20.48;5.47;;;;;;;;;;5034789;28;20456;-78
2023/01/30 00:09:37;;;;;;;15.55;4.65;;;;;;;;;;5018838;28;20491;-78
2023/01/30 00:12:03;;;;;;;12.32;4.93;;;;;;;;;;5019304;28;20124;-77
2023/01/30 00:14:29;;;;;;;13.05;4.97;;;;;;;;;;5035261;28;20472;-77
2023/01/30 00:16:55;;;;;;;13.05;4.78;;;;;;;;;;5034483;28;20353;-77
2023/01/30 00:19:21;;;;;;;12.15;4.90;;;;;;;;;;5032958;28;20047;-75
2023/01/30 00:21:47;;;;;;;11.45;5.05;;;;;;;;;;5014579;28;20054;-75
2023/01/30 00:24:13;;;;;;;17.13;5.13;;;;;;;;;;5029301;28;20472;-75
2023/01/30 00:26:39;;;;;;;14.77;5.53;;;;;;;;;;5025948;28;20041;-75
2023/01/30 00:29:06;;;;;;;17.65;6.30;;;;;;;;;;5034755;28;20053;-75
2023/01/30 00:31:32;;;;;;;15.75;6.68;;;;;;;;;;5034460;28;20041;-75
2023/01/30 00:33:58;;;;;;;17.92;5.80;;;;;;;;;;5034630;28;20112;-75
2023/01/30 00:36:24;;;;;;;17.10;6.63;;;;;;;;;;5034616;28;20045;-75
2023/01/30 00:38:50;;;;;;;10.95;5.10;;;;;;;;;;5026595;28;20133;-75
2023/01/30 00:41:17;;;;;;;14.02;6.00;;;;;;;;;;5014913;28;20042;-75
2023/01/30 00:49:14;;;;;;;13.88;6.53;;;;;;;;;;5029905;28;20120;-75
2023/01/30 00:51:41;;;;;;;19.23;6.38;;;;;;;;;;5033674;28;20044;-75
2023/01/30 00:54:07;;;;;;;17.50;6.20;;;;;;;;;;5033771;28;20052;-75
2023/01/30 00:56:33;;;;;;;13.60;5.88;;;;;;;;;;5029124;28;20041;-75
2023/01/30 00:58:59;;;;;;;19.02;6.07;;;;;;;;;;5014134;28;20084;-75
2023/01/30 01:01:25;;;;;;;18.17;6.80;;;;;;;;;;5014392;28;20201;-75
2023/01/30 01:03:51;;;;;;;22.38;6.28;;;;;;;;;;5024501;28;20041;-75
2023/01/30 01:06:17;;;;;;;22.60;6.93;;;;;;;;;;5014634;28;20050;-75
2023/01/30 01:08:43;;;;;;;19.23;6.00;;;;;;;;;;5029646;28;20121;-75
2023/01/30 01:11:09;;;;;;;20.25;6.13;;;;;;;;;;5033928;28;20041;-76
2023/01/30 01:13:35;;;;;;;14.90;6.07;;;;;;;;;;5029916;28;20046;-76
2023/01/30 01:16:01;;;;;;;24.00;5.78;;;;;;;;;;5014218;28;20546;-76
2023/01/30 01:18:27;;;;;;;17.08;6.07;;;;;;;;;;5013972;28;20381;-76
2023/01/30 01:20:53;;;;;;;21.67;6.63;;;;;;;;;;5014103;28;20129;-76
2023/01/30 01:23:19;;;;;;;18.63;5.60;;;;;;;;;;5014810;28;20077;-76
2023/01/30 01:25:45;;;;;;;23.40;6.50;;;;;;;;;;5016008;28;20046;-76
2023/01/30 01:28:11;;;;;;;20.25;6.05;;;;;;;;;;5020578;28;20050;-76
2023/01/30 01:30:38;;;;;;;25.98;8.07;;;;;;;;;;5019170;28;20125;-76
2023/01/30 01:33:04;;;;;;;19.50;6.32;;;;;;;;;;5015730;28;20053;-76
2023/01/30 01:35:30;;;;;;;15.18;5.50;;;;;;;;;;5015399;28;20038;-76
2023/01/30 01:37:56;;;;;;;17.05;6.00;;;;;;;;;;5030381;28;20103;-76
2023/01/30 01:43:17;;;;;;;14.55;6.03;;;;;;;;;;5033731;28;20054;-76
2023/01/30 01:45:43;;;;;;;;;;;;;;;;;;5021547;28;20050;-77
2023/01/30 01:48:15;;;;;;;17.47;5.87;;;;;;;;;;5013986;28;20004;-76
2023/01/30 01:50:51;;;;;;;20.95;6.32;;;;;;;;;;5013659;28;20093;-77
2023/01/30 01:53:18;;;;;;;18.08;5.68;;;;;;;;;;5022895;28;20053;-77
2023/01/30 01:55:44;;;;;;;17.45;5.78;;;;;;;;;;5013409;28;20042;-77
2023/01/30 01:58:12;;;;;;;23.80;6.57;;;;;;;;;;5016022;28;20038;-78
2023/01/30 02:00:39;;;;;;;27.65;7.35;;;;;;;;;;5033043;28;20045;-77
2023/01/30 02:03:06;;;;;;;22.33;6.32;;;;;;;;;;5033166;28;20041;-77
2023/01/30 02:05:34;;;;;;;27.48;6.78;;;;;;;;;;5034444;28;20054;-77
2023/01/30 02:08:06;;;;;;;23.38;5.82;;;;;;;;;;5030788;28;20077;-77
2023/01/30 02:10:40;;;;;;;20.90;5.78;;;;;;;;;;5037158;28;20061;-77
2023/01/30 02:13:06;;;;;;;17.55;5.78;;;;;;;;;;5037575;28;20041;-77
2023/01/30 02:15:32;;;;;;;25.35;6.00;;;;;;;;;;5037096;28;20068;-77
2023/01/30 02:17:59;;;;;;;18.52;6.32;;;;;;;;;;5037040;28;20120;-77
2023/01/30 02:20:44;;;;;;;14.60;5.07;;;;;;;;;;5036613;28;20053;-78
2023/01/30 02:23:23;;;;;;;22.50;6.43;;;;;;;;;;5036899;28;20057;-77
2023/01/30 02:26:08;;;;;;;17.85;5.63;;;;;;;;;;5052520;28;20132;-77
2023/01/30 02:28:40;;;;;;;22.23;5.68;;;;;;;;;;5052560;28;20045;-77
2023/01/30 02:31:15;;;;;;;16.00;5.53;;;;;;;;;;5036885;28;20128;-78
2023/01/30 02:34:00;;;;;;;19.80;5.70;;;;;;;;;;5036691;28;20087;-77
2023/01/30 02:36:29;;;;;;;22.45;6.03;;;;;;;;;;5035860;28;20129;-78
2023/01/30 02:39:11;;;;;;;20.67;5.72;;;;;;;;;;5036757;28;20045;-78
2023/01/30 02:41:48;;;;;;;19.70;4.95;;;;;;;;;;5036257;28;20548;-77
2023/01/30 02:44:23;;;;;;;20.10;5.80;;;;;;;;;;5026188;28;20052;-78
2023/01/30 02:46:49;;;;;;;16.45;5.60;;;;;;;;;;5016549;28;20041;-77
2023/01/30 02:49:20;;;;;;;18.92;5.15;;;;;;;;;;5016515;28;20038;-78
2023/01/30 02:51:47;;;;;;;20.20;5.80;;;;;;;;;;5016907;28;20041;-77
2023/01/30 02:54:13;;;;;;;18.80;5.35;;;;;;;;;;5016554;28;20488;-78
2023/01/30 02:56:53;;;;;;;20.77;5.47;;;;;;;;;;5015584;28;20050;-78
2023/01/30 02:59:40;;;;;;;16.10;5.20;;;;;;;;;;5029128;28;20073;-78
2023/01/30 03:02:24;;;;;;;19.55;4.75;;;;;;;;;;5035764;28;20500;-78
2023/01/30 03:04:57;;;;;;;20.08;4.93;;;;;;;;;;5017515;28;20062;-77
2023/01/30 03:07:26;;;;;;;21.38;5.00;;;;;;;;;;5015953;28;20504;-77
2023/01/30 03:09:52;;;;;;;19.05;5.25;;;;;;;;;;5016720;28;20049;-78
2023/01/30 03:12:25;;;;;;;17.50;4.80;;;;;;;;;;5016415;28;20117;-78
2023/01/30 03:14:54;;;;;;;25.65;5.35;;;;;;;;;;5035920;28;20373;-77
2023/01/30 03:17:23;;;;;;;23.95;5.22;;;;;;;;;;5034111;28;20562;-78
2023/01/30 03:19:50;;;;;;;14.60;4.28;;;;;;;;;;5031032;28;20493;-78
2023/01/30 03:22:16;;;;;;;21.77;4.80;;;;;;;;;;5026738;28;20046;-78
2023/01/30 03:24:43;;;;;;;25.70;4.97;;;;;;;;;;5035536;28;20492;-77
2023/01/30 03:27:11;;;;;;;26.83;5.40;;;;;;;;;;5035768;28;20053;-77
2023/01/30 03:29:37;;;;;;;22.67;4.97;;;;;;;;;;5016657;28;20042;-77
2023/01/30 03:32:03;;;;;;;18.98;4.93;;;;;;;;;;5016510;28;20050;-77
2023/01/30 03:34:29;;;;;;;16.38;5.13;;;;;;;;;;5030844;28;20124;-77
2023/01/30 03:36:55;;;;;;;27.23;5.95;;;;;;;;;;5035439;28;20124;-77
2023/01/30 03:39:25;;;;;;;22.90;5.15;;;;;;;;;;5034459;28;20581;-77
2023/01/30 03:41:51;;;;;;;17.60;4.75;;;;;;;;;;5034232;28;20053;-77
2023/01/30 03:44:17;;;;;;;17.20;5.00;;;;;;;;;;5016135;28;20377;-77
2023/01/30 03:46:43;;;;;;;21.40;4.93;;;;;;;;;;5015511;28;20046;-77
2023/01/30 03:49:09;;;;;;;20.63;4.97;;;;;;;;;;5025075;28;20123;-77
2023/01/30 03:51:35;;;;;;;21.13;4.93;;;;;;;;;;5035235;28;20056;-77
2023/01/30 03:54:01;;;;;;;22.27;4.80;;;;;;;;;;5035263;28;20111;-77
2023/01/30 03:56:27;;;;;;;18.17;4.10;;;;;;;;;;5034981;28;20064;-77
2023/01/30 03:58:53;;;;;;;15.88;4.00;;;;;;;;;;5017754;28;20045;-77
2023/01/30 04:01:20;;;;;;;23.38;4.93;;;;;;;;;;5013843;28;20042;-77
2023/01/30 04:03:46;;;;;;;22.08;4.40;;;;;;;;;;5015475;28;20049;-77
2023/01/30 04:06:12;;;;;;;21.95;5.22;;;;;;;;;;5015404;28;20046;-77
2023/01/30 04:08:38;;;;;;;25.65;4.70;;;;;;;;;;5014822;28;20042;-77
2023/01/30 04:11:04;;;;;;;21.58;4.90;;;;;;;;;;5014992;28;20038;-77
2023/01/30 04:13:30;;;;;;;26.92;4.70;;;;;;;;;;5014966;28;20042;-77
2023/01/30 04:16:16;;;;;;;23.88;5.38;;;;;;;;;;5015127;28;20085;-77
2023/01/30 04:18:42;;;;;;;22.67;4.70;;;;;;;;;;5015376;28;20038;-77
2023/01/30 04:21:08;;;;;;;20.05;5.22;;;;;;;;;;5046564;28;20049;-77
2023/01/30 04:23:34;;;;;;;20.00;5.00;;;;;;;;;;5015182;28;20085;-77
2023/01/30 04:26:00;;;;;;;18.42;4.18;;;;;;;;;;5014820;28;20056;-77
2023/01/30 04:28:26;;;;;;;18.33;4.00;;;;;;;;;;5031770;28;20037;-77
2023/01/30 04:30:52;;;;;;;16.00;5.18;;;;;;;;;;5034557;28;20041;-77
2023/01/30 04:33:18;;;;;;;24.83;5.00;;;;;;;;;;5034378;28;20041;-77
2023/01/30 04:35:51;;;;;;;21.52;5.05;;;;;;;;;;5034526;28;20067;-77
2023/01/30 04:38:18;;;;;;;16.77;4.05;;;;;;;;;;5040189;28;20500;-78
2023/01/30 04:40:51;;;;;;;29.45;4.78;;;;;;;;;;5027240;28;20057;-78
2023/01/30 04:43:18;;;;;;;17.10;4.28;;;;;;;;;;5015630;28;20146;-78
2023/01/30 04:45:44;;;;;;;17.63;4.65;;;;;;;;;;5018674;28;20053;-78
2023/01/30 04:48:10;;;;;;;26.10;4.38;;;;;;;;;;5015566;28;20077;-77
2023/01/30 04:50:36;;;;;;;23.13;4.45;;;;;;;;;;5014374;28;20056;-77
2023/01/30 04:53:02;;;;;;;18.27;4.40;;;;;;;;;;5014388;28;20088;-78
2023/01/30 04:55:28;;;;;;;18.85;4.68;;;;;;;;;;5014334;28;20096;-77
2023/01/30 04:57:55;;;;;;;17.15;4.63;;;;;;;;;;5013825;28;20054;-78
2023/01/30 05:00:21;;;;;;;24.95;4.95;;;;;;;;;;5014243;28;20496;-78
2023/01/30 05:02:47;;;;;;;27.10;4.45;;;;;;;;;;5014026;28;20042;-78
2023/01/30 05:05:13;;;;;;;20.65;4.38;;;;;;;;;;5018806;28;20050;-78
2023/01/30 05:07:39;;;;;;;26.63;4.70;;;;;;;;;;5022426;28;20114;-77
2023/01/30 05:10:05;;;;;;;22.40;5.18;;;;;;;;;;5033476;28;20088;-78
2023/01/30 05:12:31;;;;;;;23.45;4.57;;;;;;;;;;5033497;28;20049;-78
2023/01/30 05:14:57;;;;;;;21.15;4.30;;;;;;;;;;5033569;28;20045;-78
2023/01/30 05:17:23;;;;;;;24.30;5.05;;;;;;;;;;5033394;28;20408;-77
2023/01/30 05:19:49;;;;;;;17.40;4.40;;;;;;;;;;5033356;28;20041;-78
2023/01/30 05:22:15;;;;;;;20.30;4.55;;;;;;;;;;5013987;28;20061;-78
2023/01/30 05:24:41;;;;;;;27.92;5.60;;;;;;;;;;5013847;28;20049;-78
2023/01/30 05:27:07;;;;;;;23.20;5.10;;;;;;;;;;5013952;28;20041;-77
2023/01/30 05:29:33;;;;;;;19.13;4.53;;;;;;;;;;5013868;28;20041;-78
2023/01/30 05:31:59;;;;;;;25.60;5.03;;;;;;;;;;5012115;28;20060;-78
2023/01/30 05:34:25;;;;;;;24.33;5.38;;;;;;;;;;5013704;28;20507;-78
2023/01/30 05:36:51;;;;;;;23.67;4.72;;;;;;;;;;5017265;28;20480;-78
2023/01/30 05:39:17;;;;;;;21.30;4.38;;;;;;;;;;5012929;28;20381;-78
2023/01/30 05:41:43;;;;;;;27.35;4.93;;;;;;;;;;5012892;28;20385;-78
2023/01/30 05:44:09;;;;;;;20.45;5.18;;;;;;;;;;5012436;28;20130;-78
2023/01/30 05:46:35;;;;;;;20.95;5.30;;;;;;;;;;5013326;28;20104;-78
2023/01/30 05:49:03;;;;;;;18.88;4.20;;;;;;;;;;5013964;28;20050;-78
2023/01/30 05:51:29;;;;;;;22.95;4.90;;;;;;;;;;5018470;28;20124;-78
2023/01/30 05:53:55;;;;;;;26.38;4.57;;;;;;;;;;5033198;28;20041;-78
2023/01/30 05:56:22;;;;;;;21.23;4.57;;;;;;;;;;5032866;28;20481;-78
2023/01/30 05:58:52;;;;;;;12.13;3.70;;;;;;;;;;5033190;28;20057;-78
2023/01/30 06:01:18;;;;;;;29.92;4.70;;;;;;;;;;5031929;28;20048;-77
2023/01/30 06:03:44;;;;;;;18.70;4.55;;;;;;;;;;5013784;28;20041;-78
2023/01/30 06:06:12;;;;;;;23.30;4.68;;;;;;;;;;5017678;28;20042;-78
2023/01/30 06:08:38;;;;;;;18.63;4.32;;;;;;;;;;5013441;28;20070;-78
2023/01/30 06:11:06;;;;;;;22.38;4.82;;;;;;;;;;5013575;28;20042;-78
2023/01/30 06:13:32;;;;;;;21.15;5.07;;;;;;;;;;5013721;28;20054;-78
2023/01/30 06:15:58;;;;;;;27.85;4.80;;;;;;;;;;5011844;28;20050;-78
2023/01/30 06:18:24;;;;;;;26.02;4.97;;;;;;;;;;5017831;28;20108;-77
2023/01/30 06:20:51;;;;;;;24.15;4.72;;;;;;;;;;5028467;28;20096;-77
2023/01/30 06:23:17;;;;;;;20.25;4.68;;;;;;;;;;5013316;28;20050;-78
2023/01/30 06:25:44;;;;;;;21.48;4.93;;;;;;;;;;5013169;28;20053;-78
2023/01/30 06:28:10;;;;;;;17.33;4.38;;;;;;;;;;5015373;28;20053;-77
2023/01/30 06:30:39;;;;;;;18.58;4.80;;;;;;;;;;5013197;28;20088;-77
2023/01/30 06:33:06;;;;;;;28.85;5.45;;;;;;;;;;5011234;28;20053;-78
2023/01/30 06:35:32;;;;;;;23.60;4.43;;;;;;;;;;5013151;28;20050;-78
2023/01/30 06:37:58;;;;;;;28.35;5.38;;;;;;;;;;5011437;28;20508;-78
2023/01/30 06:40:24;;;;;;;18.35;4.40;;;;;;;;;;5013628;28;20045;-78
2023/01/30 06:42:55;;;;;;;23.20;4.40;;;;;;;;;;5013211;28;20046;-78
2023/01/30 06:45:28;;;;;;;28.05;5.03;;;;;;;;;;5012018;28;20053;-77
2023/01/30 06:47:55;;;;;;;17.27;5.35;;;;;;;;;;5031779;28;20046;-77
2023/01/30 06:50:22;;;;;;;18.88;4.63;;;;;;;;;;5034357;28;20052;-79
2023/01/30 06:52:49;;;;;;;24.42;5.03;;;;;;;;;;5033963;28;20492;-77
2023/01/30 06:55:16;;;;;;;21.25;4.90;;;;;;;;;;5021454;28;20073;-77
2023/01/30 06:57:45;;;;;;;17.60;4.75;;;;;;;;;;5020998;28;20077;-77
2023/01/30 07:00:13;;;;;;;26.65;6.07;;;;;;;;;;5031580;28;20038;-77
2023/01/30 07:02:55;;;;;;;22.88;5.72;;;;;;;;;;5014970;28;20455;-76
2023/01/30 07:05:21;;;;;;;22.23;4.95;;;;;;;;;;5013318;28;20092;-76
2023/01/30 07:07:47;;;;;;;18.80;5.05;;;;;;;;;;5014884;28;20038;-76
2023/01/30 07:10:13;;;;;;;22.02;5.40;;;;;;;;;;5014216;28;20699;-76
2023/01/30 07:12:39;;;;;;;22.60;4.80;;;;;;;;;;5020503;28;20128;-76
2023/01/30 07:15:06;;;;;;;21.88;4.90;;;;;;;;;;5029752;28;20045;-77
2023/01/30 07:17:32;;;;;;;28.08;5.03;;;;;;;;;;5014484;28;20053;-77
2023/01/30 07:19:58;;;;;;;23.52;5.32;;;;;;;;;;5012548;28;20052;-77
2023/01/30 07:22:24;;;;;;;20.23;4.75;;;;;;;;;;5014696;28;20041;-78
2023/01/30 07:24:50;;;;;;;24.10;4.85;;;;;;;;;;5017109;28;20100;-78
2023/01/30 07:27:16;;;;;;;22.55;4.80;;;;;;;;;;5016237;28;20042;-76
2023/01/30 07:29:42;;;;;;;21.50;5.18;;;;;;;;;;5019848;28;20129;-76
2023/01/30 07:32:13;;;;;;;21.15;4.72;;;;;;;;;;5015869;28;20104;-76
2023/01/30 07:34:39;;;;;;;21.77;4.68;;;;;;;;;;5014732;28;20575;-76
2023/01/30 07:37:05;;;;;;;23.25;4.85;;;;;;;;;;5016017;28;20046;-76
2023/01/30 07:39:31;;;;;;;23.52;4.68;;;;;;;;;;5015669;28;20129;-76
2023/01/30 07:41:59;;;;;;;20.15;4.45;;;;;;;;;;5015627;28;20045;-76
2023/01/30 07:44:25;;;;;;;17.10;5.18;;;;;;;;;;5017782;28;20044;-76
2023/01/30 07:46:51;;;;;;;23.65;5.10;;;;;;;;;;5021826;28;20149;-76
2023/01/30 07:49:17;;;;;;;17.80;3.97;;;;;;;;;;5020843;28;20042;-78
2023/01/30 07:51:43;;;;;;;18.63;4.88;;;;;;;;;;5015863;28;20048;-77
2023/01/30 07:54:09;;;;;;;24.77;4.80;;;;;;;;;;5015754;28;20048;-76
2023/01/30 07:56:35;;;;;;;19.83;5.15;;;;;;;;;;5018358;28;20046;-76
2023/01/30 07:59:02;;;;;;;22.75;4.78;;;;;;;;;;5032214;28;20132;-76
2023/01/30 08:01:28;;;;;;;21.33;4.60;;;;;;;;;;5031304;28;20053;-77
2023/01/30 08:03:54;;;;;;;24.63;5.53;;;;;;;;;;5034215;28;20435;-77
2023/01/30 08:06:20;;;;;;;18.63;4.60;;;;;;;;;;5021160;28;20543;-76
2023/01/30 08:08:46;;;;;;;24.10;4.70;;;;;;;;;;5031243;28;20136;-77
2023/01/30 08:11:13;;;;;;;19.70;4.20;;;;;;;;;;5022232;28;20049;-78
2023/01/30 08:13:39;;;;;;;23.00;5.07;;;;;;;;;;5015750;28;20050;-77
2023/01/30 08:16:06;;;;;;;24.55;4.50;;;;;;;;;;5018268;28;20041;-77
2023/01/30 08:18:33;;;;;;;24.92;5.30;;;;;;;;;;5034577;28;20049;-77
2023/01/30 08:20:59;;;;;;;20.38;4.45;;;;;;;;;;5033661;28;20049;-78
2023/01/30 08:23:25;;;;;;;23.13;4.28;;;;;;;;;;5036193;28;20122;-77
2023/01/30 08:25:55;;;;;;;22.90;4.90;;;;;;;;;;5032682;28;20038;-77
2023/01/30 08:28:21;;;;;;;19.17;4.88;;;;;;;;;;5013841;28;20120;-76
2023/01/30 08:30:48;;;;;;;19.90;4.53;;;;;;;;;;5015077;28;20073;-77
2023/01/30 08:33:14;;;;;;;18.88;4.75;;;;;;;;;;5030116;28;20132;-77
2023/01/30 08:35:40;;;;;;;25.15;4.78;;;;;;;;;;5014739;28;20187;-77
2023/01/30 08:38:07;;;;;;;26.00;4.97;;;;;;;;;;5014565;28;20042;-77
2023/01/30 08:40:34;;;;;;;20.73;5.22;;;;;;;;;;5014994;28;20050;-77
2023/01/30 08:43:00;;;;;;;26.63;5.25;;;;;;;;;;5014553;28;20048;-82
2023/01/30 08:45:26;;;;;;;22.90;4.60;;;;;;;;;;5017427;28;20050;-76
2023/01/30 08:47:52;;;;;;;26.67;5.22;;;;;;;;;;5015042;28;20078;-76
2023/01/30 08:50:18;;;;;;;23.45;5.53;;;;;;;;;;5030676;28;20503;-76
2023/01/30 08:52:44;;;;;;;19.38;5.20;;;;;;;;;;5022881;28;20050;-76
2023/01/30 08:55:10;;;;;;;23.75;4.95;;;;;;;;;;5012676;28;20050;-76
2023/01/30 08:57:36;;;;;;;22.52;5.53;;;;;;;;;;5026388;28;20046;-76
2023/01/30 09:00:03;;;;;;;22.50;4.90;;;;;;;;;;5032514;28;20080;-77
2023/01/30 09:02:29;;;;;;;22.30;5.28;;;;;;;;;;5024708;28;20046;-76
2023/01/30 09:04:55;;;;;;;24.95;5.13;;;;;;;;;;5015927;28;20087;-76
2023/01/30 09:07:21;;;;;;;25.60;5.05;;;;;;;;;;5029663;28;20156;-76
2023/01/30 09:09:47;;;;;;;24.05;4.93;;;;;;;;;;5026842;28;20065;-77
2023/01/30 09:12:14;;;;;;;25.67;4.40;;;;;;;;;;5021387;28;20603;-77
2023/01/30 09:14:40;;;;;;;29.30;5.93;;;;;;;;;;5024988;28;20078;-77
2023/01/30 09:17:06;;;;;;;23.42;5.03;;;;;;;;;;5020182;28;20046;-76
2023/01/30 09:19:34;;;;;;;25.60;5.30;;;;;;;;;;5027049;28;20389;-77
2023/01/30 09:22:00;;;;;;;28.25;5.93;;;;;;;;;;5025437;28;20057;-76
2023/01/30 09:24:26;;;;;;;31.33;5.57;;;;;;;;;;5016583;28;20042;-77
2023/01/30 09:26:57;;;;;;;29.00;6.22;;;;;;;;;;5037706;28;20076;-76
2023/01/30 09:29:24;;;;;;;20.17;5.45;;;;;;;;;;5013972;28;20052;-77
2023/01/30 09:31:50;;;;;;;24.50;5.78;;;;;;;;;;5028990;28;20037;-76
2023/01/30 09:34:16;;;;;;;26.95;5.93;;;;;;;;;;5031888;28;20144;-77
2023/01/30 09:36:42;;;;;;;21.65;4.80;;;;;;;;;;5022289;28;20563;-76
2023/01/30 09:39:08;;;;;;;22.05;5.43;;;;;;;;;;5023079;28;20096;-77
2023/01/30 09:41:50;;;;;;;25.70;5.28;;;;;;;;;;5033586;28;20072;-76
2023/01/30 09:44:16;;;;;;;25.77;5.28;;;;;;;;;;5033773;28;20041;-76
2023/01/30 09:46:51;;;;;;;27.25;5.05;;;;;;;;;;5027009;28;20380;-77
2023/01/30 09:49:29;;;;;;;27.73;6.63;;;;;;;;;;5034438;28;20041;-76
2023/01/30 09:52:05;;;;;;;26.15;5.65;;;;;;;;;;5032593;28;20049;-76
2023/01/30 09:54:37;;;;;;;26.67;5.75;;;;;;;;;;5017349;28;20046;-77
2023/01/30 09:57:16;;;;;;;29.13;6.25;;;;;;;;;;5033637;28;20049;-77
2023/01/30 10:00:01;;;;;;;21.38;5.60;;;;;;;;;;5040712;28;20049;-77
2023/01/30 10:02:35;;;;;;;25.40;5.95;;;;;;;;;;5018126;28;20489;-76
2023/01/30 10:05:02;;;;;;;25.13;5.95;;;;;;;;;;5040794;28;20499;-77
2023/01/30 10:07:37;;;;;;;21.95;5.22;;;;;;;;;;5015383;28;20096;-77
2023/01/30 10:10:09;;;;;;;7.65;2.08;;;;;;;;;;5017379;28;20125;-76
2023/01/30 10:12:37;;;;;;;9.00;2.33;;;;;;;;;;5029859;28;20046;-74
2023/01/30 10:15:13;;;;;;;6.97;2.33;;;;;;;;;;5018370;28;20054;-75
2023/01/30 10:18:06;;;;;;;9.68;2.15;;;;;;;;;;5022315;28;20045;-76
2023/01/30 10:20:50;;;;;;;12.05;2.92;;;;;;;;;;5004435;28;20132;-75
2023/01/30 10:23:35;;;;;;;9.85;2.22;;;;;;;;;;5032187;28;20087;-75
2023/01/30 10:26:14;;;;;;;10.23;2.65;;;;;;;;;;5026591;28;20046;-75
2023/01/30 10:28:50;;;;;;;10.60;2.50;;;;;;;;;;5034494;28;20046;-78
2023/01/30 10:31:17;;;;;;;10.25;2.90;;;;;;;;;;5047229;28;20115;-74
2023/01/30 10:33:44;;;;;;;15.02;3.45;;;;;;;;;;5046706;28;20535;-75
2023/01/30 10:36:20;;;;;;;17.95;3.78;;;;;;;;;;5016848;28;20378;-76
2023/01/30 10:38:48;;;;;;;27.38;4.40;;;;;;;;;;5034973;28;20041;-76
2023/01/30 10:41:19;;;;;;;24.63;4.57;;;;;;;;;;5036027;28;20407;-76
2023/01/30 10:43:52;;;;;;;21.20;4.32;;;;;;;;;;5037229;28;20046;-77
2023/01/30 10:46:23;;;;;;;10.45;3.38;;;;;;;;;;5036260;28;20540;-76
2023/01/30 10:48:49;;;;;;;13.82;3.40;;;;;;;;;;5036903;28;20037;-77
2023/01/30 10:51:21;;;;;;;14.63;2.90;;;;;;;;;;5037500;28;20052;-77
2023/01/30 10:53:52;;;;;;;15.10;3.42;;;;;;;;;;5036897;28;20049;-77
2023/01/30 10:56:18;;;;;;;13.80;2.95;;;;;;;;;;5043065;28;20041;-77
2023/01/30 10:59:04;;;;;;;11.20;3.13;;;;;;;;;;5040162;28;20056;-77
2023/01/30 11:01:36;;;;;;;14.47;3.63;;;;;;;;;;5020956;28;20050;-76
2023/01/30 11:04:03;;;;;;;10.60;3.20;;;;;;;;;;5020295;28;20045;-76
2023/01/30 11:06:30;;;;;;;16.75;4.20;;;;;;;;;;5015037;28;20054;-76
2023/01/30 11:08:57;;;;;;;17.23;3.58;;;;;;;;;;5016407;28;20087;-76
2023/01/30 11:11:28;;;;;;;14.93;3.90;;;;;;;;;;5016468;28;20510;-76
2023/01/30 11:14:03;;;;;;;18.83;3.60;;;;;;;;;;5015989;28;20054;-76
2023/01/30 11:16:30;;;;;;;15.30;3.60;;;;;;;;;;5016223;28;20092;-76
2023/01/30 11:18:58;;;;;;;12.80;2.90;;;;;;;;;;5023260;28;20511;-76
2023/01/30 11:21:31;;;;;;;10.60;2.80;;;;;;;;;;5034346;28;20072;-75
2023/01/30 11:24:03;;;;;;;12.43;2.92;;;;;;;;;;5036032;28;20061;-77
2023/01/30 11:26:32;;;;;;;12.18;2.90;;;;;;;;;;5020218;28;20488;-79
2023/01/30 11:28:58;;;;;;;14.07;3.30;;;;;;;;;;5018312;28;20046;-76
2023/01/30 11:31:39;;;;;;;19.80;3.55;;;;;;;;;;5023470;28;20251;-75
2023/01/30 11:34:11;;;;;;;19.95;3.72;;;;;;;;;;5026407;28;20051;-76
2023/01/30 11:37:00;;;;;;;12.32;2.80;;;;;;;;;;5015829;28;20045;-76
2023/01/30 11:39:28;;;;;;;12.50;2.92;;;;;;;;;;5014423;28;20400;-76
2023/01/30 11:41:54;;;;;;;14.35;2.97;;;;;;;;;;5015891;28;20532;-76
2023/01/30 11:44:33;;;;;;;9.63;3.30;;;;;;;;;;5015161;28;20377;-76
2023/01/30 11:47:22;;;;;;;16.38;3.03;;;;;;;;;;5035724;28;20049;-76
2023/01/30 11:49:53;;;;;;;13.77;2.97;;;;;;;;;;5030247;28;20077;-76
2023/01/30 11:52:29;;;;;;;15.27;4.63;;;;;;;;;;5014811;28;20056;-76
2023/01/30 11:58:14;;;;;;;17.77;3.83;;;;;;;;;;5019736;28;20199;-77
2023/01/30 12:00:41;;;;;;;25.05;4.78;;;;;;;;;;5035687;28;20078;-77
2023/01/30 12:03:11;;;;;;;20.95;4.35;;;;;;;;;;5028067;28;20121;-77
2023/01/30 12:05:41;;;;;;;15.80;3.85;;;;;;;;;;5014548;28;20042;-77
2023/01/30 12:08:27;;;;;;;19.08;4.68;;;;;;;;;;5028101;28;20045;-77
2023/01/30 12:10:56;;;;;;;16.15;4.20;;;;;;;;;;5035569;28;20052;-77
2023/01/30 12:13:30;;;;;;;19.75;4.38;;;;;;;;;;5033679;28;20056;-77
2023/01/30 12:16:12;;;;;;;18.58;4.00;;;;;;;;;;5035175;28;20038;-79
2023/01/30 12:18:44;;;;;;;17.75;4.78;;;;;;;;;;5034736;28;20038;-77
2023/01/30 12:21:15;;;;;;;21.80;5.32;;;;;;;;;;5035017;28;20075;-77
2023/01/30 12:23:48;;;;;;;16.10;4.25;;;;;;;;;;5034325;28;20488;-77
2023/01/30 12:26:24;;;;;;;20.23;4.45;;;;;;;;;;5031892;28;20591;-77
2023/01/30 12:29:08;;;;;;;19.40;3.95;;;;;;;;;;5028904;28;20041;-77
2023/01/30 12:31:46;;;;;;;17.27;4.10;;;;;;;;;;5015030;28;20054;-77
2023/01/30 12:34:12;;;;;;;15.93;3.88;;;;;;;;;;5014471;28;20080;-77
2023/01/30 12:36:38;;;;;;;17.23;4.18;;;;;;;;;;5034229;28;20037;-77
2023/01/30 12:39:13;;;;;;;15.88;3.72;;;;;;;;;;5034565;28;20040;-77
2023/01/30 12:41:58;;;;;;;16.98;5.20;;;;;;;;;;5034540;28;20050;-77
2023/01/30 12:44:36;;;;;;;13.68;3.53;;;;;;;;;;5014549;28;20042;-76
2023/01/30 12:47:02;;;;;;;16.70;4.50;;;;;;;;;;5014328;28;20042;-77
2023/01/30 12:49:49;;;;;;;24.48;5.10;;;;;;;;;;5033837;28;20544;-77
2023/01/30 12:52:26;;;;;;;19.33;4.70;;;;;;;;;;5018344;28;20041;-77
2023/01/30 12:55:06;;;;;;;21.55;4.82;;;;;;;;;;5024735;28;20120;-77
2023/01/30 12:57:36;;;;;;;26.75;5.10;;;;;;;;;;5031450;28;20052;-77
2023/01/30 13:00:21;;;;;;;18.52;4.43;;;;;;;;;;5026527;28;20567;-77
2023/01/30 13:02:59;;;;;;;20.75;4.63;;;;;;;;;;5023456;28;20452;-77
2023/01/30 13:05:37;;;;;;;21.27;4.78;;;;;;;;;;5033739;28;20120;-77
2023/01/30 13:08:09;;;;;;;22.60;4.88;;;;;;;;;;5034207;28;20049;-77
2023/01/30 13:10:40;;;;;;;29.95;5.57;;;;;;;;;;5026897;28;20442;-77
2023/01/30 13:13:15;;;;;;;26.05;5.38;;;;;;;;;;5018553;28;20057;-77
2023/01/30 13:16:02;;;;;;;22.67;5.78;;;;;;;;;;5022721;28;20052;-77
2023/01/30 13:18:50;;;;;;;29.60;5.35;;;;;;;;;;5033573;28;20163;-77
2023/01/30 13:21:17;;;;;;;26.45;5.68;;;;;;;;;;5023804;28;20056;-77
2023/01/30 13:23:46;;;;;;;30.20;6.47;;;;;;;;;;5019486;28;21699;-77
2023/01/30 13:26:18;;;;;;;21.85;5.63;;;;;;;;;;5017198;28;20054;-76
2023/01/30 13:29:07;;;;;;;30.02;6.32;;;;;;;;;;5013677;28;20396;-76
2023/01/30 13:31:37;;;;;;;27.80;6.50;;;;;;;;;;4954008;28;20149;-77
2023/01/30 13:34:07;;;;;;;28.73;6.65;;;;;;;;;;4965712;28;20046;-77
2023/01/30 13:36:40;;;;;;;24.85;5.88;;;;;;;;;;4959835;28;20106;-77
2023/01/30 13:39:17;;;;;;;20.98;4.75;;;;;;;;;;4972172;28;20052;-77
2023/01/30 13:41:46;;;;;;;31.02;6.28;;;;;;;;;;4972090;28;20047;-77
2023/01/30 13:44:22;;;;;;;24.17;5.65;;;;;;;;;;4972658;28;20058;-77
2023/01/30 13:46:50;;;;;;;30.73;6.78;;;;;;;;;;4956222;28;20406;-77
2023/01/30 13:49:39;;;;;;;28.05;6.80;;;;;;;;;;4972327;28;20054;-77
2023/01/30 13:52:10;;;;;;;29.67;6.35;;;;;;;;;;4961699;28;20139;-76
2023/01/30 13:54:42;;;;;;;31.30;6.65;;;;;;;;;;4956326;28;20050;-77
2023/01/30 13:57:14;;;;;;;27.67;6.05;;;;;;;;;;4972281;28;20098;-77
2023/01/30 14:00:01;;;;;;;26.60;5.65;;;;;;;;;;4972784;28;20051;-77
2023/01/30 14:02:27;;;;;;;20.83;5.82;;;;;;;;;;4974999;28;20046;-77
2023/01/30 14:04:56;;;;;;;27.88;5.80;;;;;;;;;;4971388;28;20047;-76
2023/01/30 14:07:41;;;;;;;22.30;5.47;;;;;;;;;;4976416;28;20492;-77
2023/01/30 14:10:10;;;;;;;22.08;5.88;;;;;;;;;;5023707;28;20497;-77
2023/01/30 14:12:39;;;;;;;25.23;5.43;;;;;;;;;;5036928;28;20088;-76
2023/01/30 14:15:08;;;;;;;24.33;6.07;;;;;;;;;;5022601;28;20103;-77
2023/01/30 14:17:34;;;;;;;33.42;7.13;;;;;;;;;;5042773;28;20056;-77
2023/01/30 14:20:30;;;;;;;30.00;6.95;;;;;;;;;;5032266;28;20042;-77
2023/01/30 14:22:57;;;;;;;24.83;5.75;;;;;;;;;;4998669;28;20064;-77
2023/01/30 14:25:34;;;;;;;24.90;5.65;;;;;;;;;;5017607;28;20054;-77
2023/01/30 14:28:00;;;;;;;;;;;;;;;;;;5026536;28;20033;-77
2023/01/30 14:30:39;;;;;;;27.55;5.70;;;;;;;;;;5016930;28;20426;-77
2023/01/30 14:33:20;;;;;;;33.67;6.43;;;;;;;;;;5017003;28;20050;-77
2023/01/30 14:36:02;;;;;;;30.77;7.93;;;;;;;;;;5018239;28;20121;-77
2023/01/30 14:38:38;;;;;;;35.63;6.78;;;;;;;;;;5036784;28;20037;-77
2023/01/30 14:41:04;;;;;;;29.25;6.40;;;;;;;;;;5037047;28;20134;-76
2023/01/30 14:43:35;;;;;;;23.48;5.70;;;;;;;;;;5021569;28;20053;-77
2023/01/30 14:46:03;;;;;;;25.35;5.30;;;;;;;;;;5016643;28;20056;-77
2023/01/30 14:48:38;;;;;;;28.30;5.40;;;;;;;;;;5031386;28;20054;-77
2023/01/30 14:51:22;;;;;;;26.10;6.00;;;;;;;;;;5034189;28;20045;-77
2023/01/30 14:53:50;;;;;;;24.95;5.20;;;;;;;;;;5018598;28;20057;-77
2023/01/30 14:56:16;;;;;;;26.70;5.78;;;;;;;;;;5036971;28;20049;-77
2023/01/30 14:58:59;;;;;;;28.58;6.10;;;;;;;;;;5054034;28;20068;-77